Time;durP1;ratioP1;P1;durP2;ratioP2;P2;SDS_P1;SDS_P2;PMS_P1;PMS_P2;Temp;Humidity;BMP_temperature;BMP_pressure;BME280_temperature;BME280_humidity;BME280_pressure;Samples;Min_cycle;Max_cycle;Signal;HPM_P1;HPM_P2
2021/01/15 00:00:59;;;;;;;;;18.75;16.00;;;;;;;;5060265;28;11536;-82
2021/01/15 00:03:26;;;;;;;;;8.00;6.00;;;;;;;;5057720;28;11601;-84
2021/01/15 00:05:53;;;;;;;;;23.25;18.75;;;;;;;;5059048;28;11562;-80
2021/01/15 00:08:20;;;;;;;;;21.50;19.50;;;;;;;;5062530;28;12389;-81
2021/01/15 00:10:48;;;;;;;;;19.75;18.50;;;;;;;;5056108;28;11606;-79
2021/01/15 00:13:14;;;;;;;;;18.75;16.50;;;;;;;;5038696;28;11660;-80
2021/01/15 00:15:41;;;;;;;;;16.50;16.50;;;;;;;;5060363;28;11580;-85
2021/01/15 00:18:09;;;;;;;;;19.50;19.50;;;;;;;;5063036;28;11534;-84
2021/01/15 00:20:36;;;;;;;;;18.50;17.00;;;;;;;;5043285;28;11590;-83
2021/01/15 00:23:03;;;;;;;;;13.50;13.50;;;;;;;;5056852;28;11640;-78
2021/01/15 00:25:30;;;;;;;;;21.50;20.00;;;;;;;;5050484;28;11526;-79
2021/01/15 00:27:57;;;;;;;;;19.00;16.00;;;;;;;;5058114;28;11635;-78
2021/01/15 00:30:25;;;;;;;;;22.50;16.50;;;;;;;;5039851;28;11523;-81
2021/01/15 00:32:51;;;;;;;;;14.00;14.00;;;;;;;;5051712;28;11622;-81
2021/01/15 00:35:19;;;;;;;;;20.25;17.00;;;;;;;;5048735;28;11623;-78
2021/01/15 00:37:46;;;;;;;;;26.75;25.00;;;;;;;;5061642;28;11590;-82
2021/01/15 00:40:14;;;;;;;;;19.50;18.50;;;;;;;;5042108;28;11590;-81
2021/01/15 00:42:41;;;;;;;;;21.75;21.75;;;;;;;;5056907;28;11595;-77
2021/01/15 00:45:10;;;;;;;;;16.25;11.75;;;;;;;;5060700;28;11628;-80
2021/01/15 00:47:37;;;;;;;;;19.67;19.67;;;;;;;;5047240;28;11581;-78
2021/01/15 00:50:05;;;;;;;;;31.67;23.67;;;;;;;;5034735;28;11732;-78
2021/01/15 00:52:32;;;;;;;;;27.00;23.33;;;;;;;;5062264;28;11687;-78
2021/01/15 00:54:59;;;;;;;;;30.00;22.33;;;;;;;;5055697;28;11636;-77
2021/01/15 00:57:26;;;;;;;;;35.33;25.00;;;;;;;;5062670;28;12882;-78
2021/01/15 00:59:53;;;;;;;;;27.67;27.00;;;;;;;;5055507;28;11621;-82
2021/01/15 01:02:19;;;;;;;;;29.33;28.00;;;;;;;;5067922;28;11579;-77
2021/01/15 01:04:48;;;;;;;;;18.33;18.33;;;;;;;;5065254;28;11599;-79
2021/01/15 01:07:15;;;;;;;;;35.33;29.00;;;;;;;;5061678;28;11579;-77
2021/01/15 01:09:43;;;;;;;;;33.67;29.67;;;;;;;;5065942;28;12426;-80
2021/01/15 01:12:10;;;;;;;;;41.33;36.00;;;;;;;;5037566;28;11625;-78
2021/01/15 01:14:37;;;;;;;;;34.33;33.67;;;;;;;;5062705;28;11639;-80
2021/01/15 01:17:04;;;;;;;;;34.33;32.33;;;;;;;;5044039;28;11606;-79
2021/01/15 01:19:31;;;;;;;;;36.00;29.00;;;;;;;;5051068;28;11614;-80
2021/01/15 01:21:58;;;;;;;;;36.67;32.67;;;;;;;;5043103;28;11607;-78
2021/01/15 01:24:25;;;;;;;;;46.00;38.00;;;;;;;;5062923;28;8860;-79
2021/01/15 01:26:53;;;;;;;;;46.00;39.00;;;;;;;;5060872;28;11638;-81
2021/01/15 01:29:20;;;;;;;;;41.33;34.67;;;;;;;;5054736;28;8902;-78
2021/01/15 01:31:47;;;;;;;;;30.67;27.00;;;;;;;;5051826;28;8827;-78
2021/01/15 01:34:14;;;;;;;;;36.67;35.00;;;;;;;;5062345;28;8873;-78
2021/01/15 01:36:41;;;;;;;;;49.00;38.00;;;;;;;;5057947;28;11612;-81
2021/01/15 01:39:08;;;;;;;;;32.00;30.00;;;;;;;;5058779;28;12388;-77
2021/01/15 01:41:34;;;;;;;;;55.00;45.33;;;;;;;;5057919;28;11695;-79
2021/01/15 01:44:02;;;;;;;;;37.33;31.00;;;;;;;;5065239;28;8978;-78
2021/01/15 01:46:29;;;;;;;;;39.00;37.33;;;;;;;;5045074;28;9691;-79
2021/01/15 01:48:56;;;;;;;;;41.00;36.67;;;;;;;;5058877;28;8863;-79
2021/01/15 01:51:24;;;;;;;;;39.67;38.67;;;;;;;;5056768;28;11623;-81
2021/01/15 01:53:51;;;;;;;;;36.33;30.33;;;;;;;;5060175;28;8897;-79
2021/01/15 01:56:18;;;;;;;;;41.33;34.33;;;;;;;;5055048;28;11700;-79
2021/01/15 01:58:45;;;;;;;;;39.33;34.00;;;;;;;;5070318;28;9579;-79
2021/01/15 02:01:13;;;;;;;;;30.33;26.00;;;;;;;;5041492;28;8810;-78
2021/01/15 02:03:39;;;;;;;;;32.67;29.33;;;;;;;;5051963;28;8973;-81
2021/01/15 02:06:06;;;;;;;;;31.33;26.33;;;;;;;;5056733;28;12411;-86
2021/01/15 02:08:33;;;;;;;;;37.00;35.00;;;;;;;;5068034;28;11587;-82
2021/01/15 02:11:11;;;;;;;;;31.67;31.67;;;;;;;;5054789;28;8899;-80
2021/01/15 02:13:48;;;;;;;;;44.00;31.00;;;;;;;;5062694;28;8960;-79
2021/01/15 02:16:20;;;;;;;;;33.67;29.00;;;;;;;;5067360;28;8876;-80
2021/01/15 02:18:54;;;;;;;;;37.67;30.00;;;;;;;;5056166;28;8876;-79
2021/01/15 02:21:59;;;;;;;;;33.00;29.00;;;;;;;;5063429;28;8942;-82
2021/01/15 02:24:41;;;;;;;;;33.67;30.33;;;;;;;;5061947;28;10983;-87
2021/01/15 02:27:31;;;;;;;;;26.67;25.67;;;;;;;;5042214;28;8857;-78
2021/01/15 02:30:13;;;;;;;;;27.00;27.00;;;;;;;;5067787;28;9650;-83
2021/01/15 02:32:50;;;;;;;;;40.00;33.67;;;;;;;;5064982;28;8801;-83
2021/01/15 02:35:24;;;;;;;;;42.00;37.33;;;;;;;;5051122;28;8850;-83
2021/01/15 02:38:11;;;;;;;;;37.33;31.67;;;;;;;;5058743;28;8920;-81
2021/01/15 02:40:42;;;;;;;;;30.67;29.00;;;;;;;;5049648;28;11577;-79
2021/01/15 02:43:09;;;;;;;;;34.33;32.00;;;;;;;;5058205;28;8884;-78
2021/01/15 02:45:36;;;;;;;;;43.00;34.00;;;;;;;;5048242;28;9566;-78
2021/01/15 02:48:05;;;;;;;;;44.67;38.67;;;;;;;;5034866;28;11639;-76
2021/01/15 02:50:32;;;;;;;;;39.33;29.33;;;;;;;;5058025;28;11639;-77
2021/01/15 02:53:00;;;;;;;;;38.00;35.33;;;;;;;;5059323;28;8864;-76
2021/01/15 02:55:27;;;;;;;;;28.00;23.33;;;;;;;;5050147;28;8877;-81
2021/01/15 02:57:54;;;;;;;;;49.67;43.00;;;;;;;;5062537;28;11653;-81
2021/01/15 03:00:23;;;;;;;;;47.00;37.67;;;;;;;;5038563;28;8886;-84
2021/01/15 03:03:06;;;;;;;;;47.00;40.00;;;;;;;;5059593;28;8868;-79
2021/01/15 03:05:37;;;;;;;;;36.00;34.00;;;;;;;;5057751;28;8868;-81
2021/01/15 03:08:05;;;;;;;;;39.33;34.00;;;;;;;;5062081;28;8903;-80
2021/01/15 03:10:34;;;;;;;;;56.33;44.00;;;;;;;;5039495;28;8886;-80
2021/01/15 03:13:03;;;;;;;;;38.33;33.67;;;;;;;;5049931;28;9004;-81
2021/01/15 03:15:35;;;;;;;;;60.67;47.33;;;;;;;;5031009;28;8863;-79
2021/01/15 03:18:02;;;;;;;;;58.67;47.33;;;;;;;;5059422;28;8892;-82
2021/01/15 03:20:30;;;;;;;;;55.33;42.33;;;;;;;;5060845;28;8859;-80
2021/01/15 03:22:58;;;;;;;;;41.00;35.00;;;;;;;;5058125;28;8867;-81
2021/01/15 03:25:25;;;;;;;;;33.33;27.33;;;;;;;;5051772;28;11540;-78
2021/01/15 03:27:53;;;;;;;;;32.00;27.33;;;;;;;;5053293;28;12455;-79
2021/01/15 03:30:22;;;;;;;;;42.33;36.33;;;;;;;;5055610;28;8914;-78
2021/01/15 03:32:50;;;;;;;;;34.67;30.67;;;;;;;;5063244;28;8929;-81
2021/01/15 03:35:24;;;;;;;;;35.33;29.00;;;;;;;;5041892;28;11599;-78
2021/01/15 03:37:56;;;;;;;;;31.00;26.00;;;;;;;;5067016;28;8858;-81
2021/01/15 03:40:23;;;;;;;;;44.00;35.33;;;;;;;;5055618;28;11615;-80
2021/01/15 03:42:49;;;;;;;;;33.00;26.00;;;;;;;;5050166;28;8862;-77
2021/01/15 03:45:17;;;;;;;;;35.00;33.00;;;;;;;;5041661;28;11653;-76
2021/01/15 03:47:43;;;;;;;;;22.67;22.67;;;;;;;;5062158;28;9742;-77
2021/01/15 03:50:11;;;;;;;;;39.67;36.33;;;;;;;;5062992;28;11665;-79
2021/01/15 03:52:38;;;;;;;;;25.67;25.67;;;;;;;;5059678;28;8898;-77
2021/01/15 03:55:07;;;;;;;;;42.67;34.00;;;;;;;;5060218;28;9638;-78
2021/01/15 03:57:34;;;;;;;;;42.33;35.67;;;;;;;;5044324;28;8893;-78
2021/01/15 04:00:02;;;;;;;;;38.33;32.00;;;;;;;;5067719;28;9514;-78
2021/01/15 04:02:29;;;;;;;;;39.33;35.00;;;;;;;;5050259;28;8852;-79
2021/01/15 04:04:56;;;;;;;;;33.00;29.33;;;;;;;;5056668;28;8860;-78
2021/01/15 04:07:23;;;;;;;;;48.33;41.33;;;;;;;;5035402;28;8870;-79
2021/01/15 04:09:50;;;;;;;;;28.00;28.00;;;;;;;;5033746;28;8874;-81
2021/01/15 04:12:18;;;;;;;;;34.33;32.00;;;;;;;;5065823;28;8864;-78
2021/01/15 04:14:45;;;;;;;;;41.00;32.00;;;;;;;;5051050;28;8868;-82
2021/01/15 04:17:12;;;;;;;;;43.33;37.33;;;;;;;;5056536;28;8876;-82
2021/01/15 04:19:41;;;;;;;;;48.33;43.00;;;;;;;;5039030;28;8961;-76
2021/01/15 04:22:08;;;;;;;;;43.00;33.00;;;;;;;;5062074;28;8882;-77
2021/01/15 04:24:35;;;;;;;;;32.67;30.00;;;;;;;;5061662;28;8874;-80
2021/01/15 04:27:02;;;;;;;;;40.33;33.00;;;;;;;;5047281;28;8864;-77
2021/01/15 04:29:30;;;;;;;;;37.67;31.67;;;;;;;;5066135;28;8868;-79
2021/01/15 04:31:57;;;;;;;;;47.00;37.00;;;;;;;;5040181;28;8833;-80
2021/01/15 04:34:24;;;;;;;;;34.00;26.33;;;;;;;;5071032;28;8861;-79
2021/01/15 04:36:51;;;;;;;;;49.00;41.33;;;;;;;;5071303;28;8895;-77
2021/01/15 04:39:19;;;;;;;;;38.00;33.33;;;;;;;;5056122;28;8853;-81
2021/01/15 04:41:47;;;;;;;;;41.33;35.33;;;;;;;;5059627;28;8864;-76
2021/01/15 04:44:15;;;;;;;;;37.00;34.00;;;;;;;;5065706;28;8899;-81
2021/01/15 04:46:42;;;;;;;;;42.67;38.67;;;;;;;;5056340;28;8856;-78
2021/01/15 04:49:10;;;;;;;;;41.33;38.33;;;;;;;;5065428;28;8925;-81
2021/01/15 04:51:38;;;;;;;;;45.67;43.67;;;;;;;;5064334;28;8867;-80
2021/01/15 04:54:07;;;;;;;;;48.00;39.67;;;;;;;;5061204;28;8858;-79
2021/01/15 04:56:40;;;;;;;;;45.33;34.67;;;;;;;;5048863;28;8871;-79
2021/01/15 04:59:08;;;;;;;;;48.33;42.67;;;;;;;;5059343;28;8864;-79
2021/01/15 05:01:38;;;;;;;;;49.00;44.33;;;;;;;;5058006;28;8828;-80
2021/01/15 05:04:09;;;;;;;;;53.00;44.33;;;;;;;;5059764;28;8968;-78
2021/01/15 05:06:45;;;;;;;;;51.33;46.00;;;;;;;;5059095;28;8852;-78
2021/01/15 05:09:14;;;;;;;;;38.33;37.33;;;;;;;;5042435;28;8871;-80
2021/01/15 05:11:41;;;;;;;;;63.33;51.33;;;;;;;;5076056;28;9002;-83
2021/01/15 05:14:09;;;;;;;;;44.67;38.67;;;;;;;;5069882;28;8868;-81
2021/01/15 05:16:39;;;;;;;;;58.00;47.67;;;;;;;;5061815;28;8861;-80
2021/01/15 05:19:07;;;;;;;;;48.67;40.00;;;;;;;;5051759;28;9775;-79
2021/01/15 05:21:35;;;;;;;;;49.67;43.00;;;;;;;;5056877;28;9642;-81
2021/01/15 05:24:03;;;;;;;;;50.00;44.00;;;;;;;;5052183;28;8871;-82
2021/01/15 05:26:32;;;;;;;;;48.33;44.67;;;;;;;;5056446;28;8862;-82
2021/01/15 05:29:01;;;;;;;;;50.00;46.33;;;;;;;;5037305;28;8900;-82
2021/01/15 05:31:28;;;;;;;;;50.00;44.67;;;;;;;;5051294;28;8913;-80
2021/01/15 05:34:09;;;;;;;;;49.67;45.67;;;;;;;;5054382;28;8916;-81
2021/01/15 05:36:36;;;;;;;;;67.00;51.67;;;;;;;;5046840;28;8886;-81
2021/01/15 05:39:08;;;;;;;;;58.67;46.00;;;;;;;;5064192;28;8860;-81
2021/01/15 05:41:35;;;;;;;;;57.00;47.00;;;;;;;;5056668;28;8868;-77
2021/01/15 05:44:04;;;;;;;;;72.33;59.33;;;;;;;;5054506;28;8888;-81
2021/01/15 05:46:31;;;;;;;;;49.33;44.00;;;;;;;;5059643;28;8887;-80
2021/01/15 05:49:10;;;;;;;;;52.00;46.00;;;;;;;;5072105;28;8980;-81
2021/01/15 05:51:38;;;;;;;;;54.67;48.00;;;;;;;;5062433;28;8864;-80
2021/01/15 05:54:06;;;;;;;;;54.33;48.33;;;;;;;;5081914;28;8904;-82
2021/01/15 05:56:43;;;;;;;;;53.67;49.00;;;;;;;;5072698;28;8880;-84
2021/01/15 05:59:11;;;;;;;;;61.67;50.00;;;;;;;;5039077;28;8870;-79
2021/01/15 06:01:50;;;;;;;;;61.67;49.67;;;;;;;;5061455;28;8897;-79
2021/01/15 06:04:19;;;;;;;;;59.33;49.67;;;;;;;;5061601;28;8892;-79
2021/01/15 06:06:47;;;;;;;;;46.33;43.33;;;;;;;;5063362;28;8903;-81
2021/01/15 06:09:19;;;;;;;;;60.67;50.33;;;;;;;;5062814;28;8863;-78
2021/01/15 06:11:47;;;;;;;;;65.67;49.00;;;;;;;;5063937;28;9685;-81
2021/01/15 06:14:18;;;;;;;;;53.33;48.00;;;;;;;;5060501;28;8862;-79
2021/01/15 06:16:45;;;;;;;;;50.33;48.00;;;;;;;;5067340;28;8944;-76
2021/01/15 06:19:12;;;;;;;;;40.33;39.33;;;;;;;;5049599;28;8864;-77
2021/01/15 06:21:52;;;;;;;;;46.33;44.00;;;;;;;;5066945;28;8905;-79
2021/01/15 06:24:22;;;;;;;;;45.33;45.00;;;;;;;;5063664;28;8875;-80
2021/01/15 06:27:04;;;;;;;;;37.67;37.67;;;;;;;;5048753;28;8877;-77
2021/01/15 06:29:43;;;;;;;;;47.00;45.00;;;;;;;;5055195;28;8878;-77
2021/01/15 06:32:11;;;;;;;;;41.33;39.67;;;;;;;;5054209;28;8815;-77
2021/01/15 06:34:47;;;;;;;;;42.33;40.33;;;;;;;;5060942;28;8883;-82
2021/01/15 06:37:20;;;;;;;;;48.33;45.33;;;;;;;;5059668;28;8906;-78
2021/01/15 06:40:05;;;;;;;;;37.67;37.67;;;;;;;;5046908;28;8884;-79
2021/01/15 06:42:32;;;;;;;;;50.00;47.00;;;;;;;;5057994;28;8853;-80
2021/01/15 06:45:00;;;;;;;;;46.33;45.00;;;;;;;;5056201;28;8880;-77
2021/01/15 06:47:28;;;;;;;;;38.33;38.33;;;;;;;;5061979;28;8876;-79
2021/01/15 06:49:58;;;;;;;;;50.67;45.00;;;;;;;;5063901;28;8894;-78
2021/01/15 06:52:28;;;;;;;;;35.67;34.67;;;;;;;;5063238;28;8847;-77
2021/01/15 06:54:55;;;;;;;;;40.33;40.33;;;;;;;;5059327;28;8861;-82
2021/01/15 06:57:30;;;;;;;;;45.33;45.00;;;;;;;;5058045;28;8862;-77
2021/01/15 06:59:59;;;;;;;;;40.00;40.00;;;;;;;;5037171;28;8867;-71
2021/01/15 07:02:50;;;;;;;;;43.67;43.67;;;;;;;;5051338;28;8793;-70
2021/01/15 07:05:16;;;;;;;;;38.33;36.00;;;;;;;;5059069;28;8944;-70
2021/01/15 07:07:46;;;;;;;;;28.33;28.33;;;;;;;;5047465;28;8868;-70
2021/01/15 07:10:13;;;;;;;;;41.00;41.00;;;;;;;;5052565;28;9686;-70
2021/01/15 07:12:43;;;;;;;;;37.00;37.00;;;;;;;;5062002;28;8868;-70
2021/01/15 07:15:14;;;;;;;;;37.33;35.67;;;;;;;;5063683;28;8883;-71
2021/01/15 07:17:46;;;;;;;;;38.33;38.33;;;;;;;;5055384;28;9006;-71
2021/01/15 07:20:14;;;;;;;;;46.00;45.33;;;;;;;;5047820;28;8853;-71
2021/01/15 07:22:49;;;;;;;;;32.33;32.33;;;;;;;;5057993;28;8883;-70
2021/01/15 07:25:17;;;;;;;;;40.33;39.00;;;;;;;;5063274;28;8848;-70
2021/01/15 07:27:44;;;;;;;;;43.00;40.00;;;;;;;;5060518;28;8840;-71
2021/01/15 07:30:13;;;;;;;;;45.67;44.33;;;;;;;;5061942;28;8880;-70
2021/01/15 07:32:41;;;;;;;;;37.00;37.00;;;;;;;;5068977;28;8860;-70
2021/01/15 07:35:14;;;;;;;;;42.33;42.33;;;;;;;;5062311;28;8864;-70
2021/01/15 07:37:41;;;;;;;;;39.67;39.67;;;;;;;;5062735;28;8868;-70
2021/01/15 07:40:20;;;;;;;;;52.33;48.33;;;;;;;;5056694;28;8860;-70
2021/01/15 07:42:52;;;;;;;;;45.33;45.00;;;;;;;;5069291;28;8877;-70
2021/01/15 07:46:01;;;;;;;;;49.67;47.00;;;;;;;;5070063;28;8861;-70
2021/01/15 07:48:29;;;;;;;;;46.33;43.67;;;;;;;;4981592;28;8866;-70
2021/01/15 07:50:56;;;;;;;;;36.67;36.67;;;;;;;;4973451;28;8979;-71
2021/01/15 07:53:28;;;;;;;;;32.67;31.33;;;;;;;;5022124;28;8891;-71
2021/01/15 07:55:58;;;;;;;;;37.00;37.00;;;;;;;;5062788;28;8942;-71
2021/01/15 07:58:26;;;;;;;;;47.33;45.67;;;;;;;;5061330;28;8854;-71
2021/01/15 08:00:53;;;;;;;;;49.67;48.00;;;;;;;;5057956;28;8815;-70
2021/01/15 08:03:21;;;;;;;;;54.33;49.67;;;;;;;;5049344;28;8894;-70
2021/01/15 08:05:51;;;;;;;;;40.33;40.00;;;;;;;;5059624;28;8868;-71
2021/01/15 08:08:19;;;;;;;;;32.33;32.33;;;;;;;;5049820;28;8870;-70
2021/01/15 08:10:51;;;;;;;;;48.67;44.00;;;;;;;;5051635;28;8871;-71
2021/01/15 08:13:20;;;;;;;;;51.00;47.33;;;;;;;;5066738;28;8880;-70
2021/01/15 08:15:47;;;;;;;;;61.67;54.00;;;;;;;;5058552;28;8871;-70
2021/01/15 08:18:14;;;;;;;;;40.33;39.67;;;;;;;;5058273;28;8886;-70
2021/01/15 08:20:46;;;;;;;;;49.33;45.00;;;;;;;;5057949;28;8926;-69
2021/01/15 08:23:23;;;;;;;;;41.67;41.00;;;;;;;;5055069;28;8884;-70
2021/01/15 08:25:52;;;;;;;;;44.33;41.67;;;;;;;;5059811;28;8916;-70
2021/01/15 08:28:22;;;;;;;;;44.33;42.67;;;;;;;;5054938;28;9613;-70
2021/01/15 08:31:03;;;;;;;;;39.33;35.67;;;;;;;;5056656;28;8991;-70
2021/01/15 08:33:30;;;;;;;;;42.67;40.33;;;;;;;;5062590;28;8882;-70
2021/01/15 08:35:59;;;;;;;;;45.00;42.00;;;;;;;;5064271;28;8873;-71
2021/01/15 08:38:34;;;;;;;;;39.67;39.67;;;;;;;;5057743;28;8859;-69
2021/01/15 08:41:02;;;;;;;;;46.67;45.00;;;;;;;;5054646;28;8861;-70
2021/01/15 08:43:30;;;;;;;;;45.67;44.00;;;;;;;;5051233;28;9622;-70
2021/01/15 08:46:00;;;;;;;;;32.67;32.67;;;;;;;;5054318;28;8867;-69
2021/01/15 08:48:31;;;;;;;;;45.67;42.33;;;;;;;;5038885;28;8856;-69
2021/01/15 08:51:08;;;;;;;;;33.67;31.67;;;;;;;;5055145;28;8914;-70
2021/01/15 08:53:43;;;;;;;;;37.33;37.33;;;;;;;;5062126;28;8902;-70
2021/01/15 08:56:14;;;;;;;;;40.33;35.67;;;;;;;;5061078;28;8891;-69
2021/01/15 08:58:49;;;;;;;;;39.67;39.67;;;;;;;;5057942;28;8856;-70
2021/01/15 09:01:29;;;;;;;;;41.33;39.33;;;;;;;;5063391;28;8824;-70
2021/01/15 09:03:58;;;;;;;;;39.33;39.33;;;;;;;;5070402;28;8900;-70
2021/01/15 09:06:25;;;;;;;;;36.00;36.00;;;;;;;;5068108;28;8861;-70
2021/01/15 09:08:54;;;;;;;;;34.00;34.00;;;;;;;;5060868;28;8862;-70
2021/01/15 09:11:29;;;;;;;;;30.33;28.00;;;;;;;;5064137;28;8882;-69
2021/01/15 09:13:58;;;;;;;;;38.00;36.00;;;;;;;;5060746;28;8876;-71
2021/01/15 09:16:27;;;;;;;;;43.33;41.33;;;;;;;;5051860;28;8835;-70
2021/01/15 09:18:54;;;;;;;;;42.00;39.67;;;;;;;;5054044;28;8846;-70
2021/01/15 09:21:23;;;;;;;;;35.33;35.33;;;;;;;;5065610;28;8945;-71
2021/01/15 09:23:50;;;;;;;;;34.33;34.33;;;;;;;;5071432;28;8904;-70
2021/01/15 09:26:21;;;;;;;;;38.33;38.33;;;;;;;;5084855;28;8896;-70
2021/01/15 09:28:48;;;;;;;;;33.00;31.00;;;;;;;;5061291;28;9608;-70
2021/01/15 09:31:18;;;;;;;;;33.33;30.33;;;;;;;;5071974;28;8813;-70
2021/01/15 09:33:48;;;;;;;;;36.00;36.00;;;;;;;;5064234;28;8848;-70
2021/01/15 09:36:22;;;;;;;;;41.00;41.00;;;;;;;;5073298;28;8862;-70
2021/01/15 09:38:50;;;;;;;;;65.33;56.33;;;;;;;;5056486;28;8880;-71
2021/01/15 09:41:17;;;;;;;;;42.33;42.33;;;;;;;;5061666;28;8907;-70
2021/01/15 09:43:44;;;;;;;;;33.67;32.67;;;;;;;;5065949;28;8864;-70
2021/01/15 09:46:22;;;;;;;;;34.33;34.33;;;;;;;;5065646;28;8856;-72
2021/01/15 09:48:50;;;;;;;;;40.67;40.67;;;;;;;;5065556;28;8857;-70
2021/01/15 09:51:19;;;;;;;;;31.00;30.33;;;;;;;;5063499;28;8877;-70
2021/01/15 09:53:46;;;;;;;;;36.00;34.00;;;;;;;;5060626;28;8868;-71
2021/01/15 09:56:22;;;;;;;;;37.67;32.33;;;;;;;;5065620;28;8857;-70
2021/01/15 09:58:49;;;;;;;;;41.33;37.33;;;;;;;;5053976;28;9557;-70
2021/01/15 10:01:17;;;;;;;;;42.33;35.33;;;;;;;;5065514;28;8805;-71
2021/01/15 10:03:44;;;;;;;;;40.00;33.00;;;;;;;;5067626;28;8897;-70
2021/01/15 10:06:15;;;;;;;;;40.67;35.67;;;;;;;;5063910;28;8876;-70
2021/01/15 10:08:42;;;;;;;;;38.33;31.33;;;;;;;;5066755;28;8965;-70
2021/01/15 10:11:09;;;;;;;;;35.67;33.67;;;;;;;;5061507;28;8868;-70
2021/01/15 10:13:36;;;;;;;;;43.33;38.33;;;;;;;;5054424;28;8852;-70
2021/01/15 10:16:06;;;;;;;;;43.00;40.00;;;;;;;;5056424;28;8871;-70
2021/01/15 10:18:33;;;;;;;;;43.67;38.33;;;;;;;;5050345;28;8868;-71
2021/01/15 10:21:03;;;;;;;;;45.00;35.00;;;;;;;;5049161;28;8867;-70
2021/01/15 10:23:29;;;;;;;;;49.67;44.33;;;;;;;;5058041;28;8888;-70
2021/01/15 10:25:57;;;;;;;;;22.00;22.00;;;;;;;;5060955;28;8904;-70
2021/01/15 10:28:24;;;;;;;;;27.67;23.00;;;;;;;;5044231;28;8860;-70
2021/01/15 10:30:51;;;;;;;;;29.67;27.33;;;;;;;;5038688;28;8931;-70
2021/01/15 10:33:18;;;;;;;;;27.33;27.33;;;;;;;;5054733;28;8870;-70
2021/01/15 10:35:45;;;;;;;;;35.67;32.67;;;;;;;;5060303;28;8901;-70
2021/01/15 10:38:13;;;;;;;;;51.00;40.00;;;;;;;;5063064;28;8846;-70
2021/01/15 10:40:40;;;;;;;;;44.33;38.33;;;;;;;;5060352;28;9485;-70
2021/01/15 10:43:06;;;;;;;;;34.67;32.33;;;;;;;;5061951;28;8868;-71
2021/01/15 10:45:33;;;;;;;;;25.33;25.33;;;;;;;;5062632;28;8872;-70
2021/01/15 10:48:02;;;;;;;;;45.67;37.33;;;;;;;;5066125;28;8895;-70
2021/01/15 10:50:29;;;;;;;;;40.00;34.67;;;;;;;;5070236;28;8937;-70
2021/01/15 10:52:56;;;;;;;;;26.33;26.33;;;;;;;;5059692;28;11584;-69
2021/01/15 10:55:24;;;;;;;;;38.67;32.00;;;;;;;;5056056;28;11644;-69
2021/01/15 10:57:51;;;;;;;;;46.00;38.33;;;;;;;;5058007;28;8891;-69
2021/01/15 11:00:18;;;;;;;;;46.67;41.00;;;;;;;;5065402;28;8872;-69
2021/01/15 11:02:50;;;;;;;;;54.00;46.00;;;;;;;;5045299;28;8868;-71
2021/01/15 11:05:17;;;;;;;;;37.67;37.00;;;;;;;;5065311;28;8883;-71
2021/01/15 11:07:46;;;;;;;;;38.33;31.00;;;;;;;;5065940;28;11679;-70
2021/01/15 11:10:13;;;;;;;;;32.00;31.33;;;;;;;;5051620;28;11576;-70
2021/01/15 11:12:41;;;;;;;;;36.00;34.00;;;;;;;;5060684;28;11551;-70
2021/01/15 11:15:08;;;;;;;;;32.75;31.00;;;;;;;;5072240;28;11623;-70
2021/01/15 11:17:38;;;;;;;;;29.75;27.50;;;;;;;;5063645;28;11629;-70
2021/01/15 11:20:07;;;;;;;;;40.67;39.67;;;;;;;;5055500;28;11552;-70
2021/01/15 11:22:36;;;;;;;;;30.33;25.33;;;;;;;;5061817;28;11618;-71
2021/01/15 11:25:04;;;;;;;;;41.67;38.67;;;;;;;;5059300;28;12500;-70
2021/01/15 11:27:33;;;;;;;;;37.25;35.00;;;;;;;;5053210;28;13112;-70
2021/01/15 11:30:01;;;;;;;;;26.25;23.00;;;;;;;;5055302;28;11672;-69
2021/01/15 11:32:30;;;;;;;;;35.75;31.00;;;;;;;;5048727;28;11567;-70
2021/01/15 11:34:57;;;;;;;;;34.75;26.25;;;;;;;;5041136;28;11627;-69
2021/01/15 11:37:24;;;;;;;;;36.50;35.00;;;;;;;;5051072;28;11630;-70
2021/01/15 11:39:50;;;;;;;;;36.00;34.00;;;;;;;;5049303;28;11545;-70
2021/01/15 11:42:17;;;;;;;;;37.00;33.25;;;;;;;;5051312;28;11632;-69
2021/01/15 11:44:44;;;;;;;;;33.50;29.75;;;;;;;;5053985;28;11598;-69
2021/01/15 11:47:11;;;;;;;;;29.75;27.75;;;;;;;;5053632;28;12174;-68
2021/01/15 11:49:38;;;;;;;;;35.25;33.25;;;;;;;;5061894;28;11598;-69
2021/01/15 11:52:07;;;;;;;;;29.25;26.00;;;;;;;;5059797;28;11752;-68
2021/01/15 11:54:34;;;;;;;;;28.75;28.50;;;;;;;;5059488;28;11586;-69
2021/01/15 11:57:01;;;;;;;;;26.50;23.50;;;;;;;;5056940;28;11560;-69
2021/01/15 11:59:28;;;;;;;;;28.25;26.25;;;;;;;;5049556;28;12438;-68
2021/01/15 12:01:56;;;;;;;;;22.00;22.00;;;;;;;;5051895;28;11501;-69
2021/01/15 12:04:24;;;;;;;;;27.25;24.75;;;;;;;;5056244;28;11829;-69
2021/01/15 12:06:54;;;;;;;;;15.75;13.25;;;;;;;;5062853;28;11651;-69
2021/01/15 12:09:21;;;;;;;;;30.25;24.50;;;;;;;;5058420;28;11633;-69
2021/01/15 12:11:48;;;;;;;;;14.75;14.75;;;;;;;;5044777;28;11599;-69
2021/01/15 12:14:15;;;;;;;;;32.25;25.25;;;;;;;;5057064;28;11546;-70
2021/01/15 12:16:41;;;;;;;;;23.50;18.25;;;;;;;;5054701;28;11653;-69
2021/01/15 12:19:08;;;;;;;;;17.00;17.00;;;;;;;;5057289;28;11673;-70
2021/01/15 12:21:36;;;;;;;;;28.25;22.75;;;;;;;;5057259;28;11722;-70
2021/01/15 12:24:04;;;;;;;;;39.00;32.50;;;;;;;;5040306;28;11652;-70
2021/01/15 12:26:32;;;;;;;;;23.25;23.25;;;;;;;;5058112;28;11582;-70
2021/01/15 12:28:59;;;;;;;;;24.25;24.25;;;;;;;;5035253;28;11555;-70
2021/01/15 12:31:26;;;;;;;;;25.00;25.00;;;;;;;;5044624;28;11551;-70
2021/01/15 12:33:53;;;;;;;;;23.50;21.00;;;;;;;;5039736;28;11640;-70
2021/01/15 12:36:19;;;;;;;;;31.50;29.00;;;;;;;;5048868;28;11555;-70
2021/01/15 12:38:47;;;;;;;;;21.25;21.00;;;;;;;;5054607;28;11628;-69
2021/01/15 12:41:14;;;;;;;;;25.25;23.00;;;;;;;;5054888;28;11590;-70
2021/01/15 12:43:41;;;;;;;;;21.00;18.50;;;;;;;;5060601;28;11638;-70
2021/01/15 12:46:11;;;;;;;;;37.00;34.75;;;;;;;;5063239;28;11565;-69
2021/01/15 12:48:38;;;;;;;;;18.50;17.00;;;;;;;;5056822;28;11598;-70
2021/01/15 12:51:06;;;;;;;;;17.25;15.50;;;;;;;;5059044;28;11604;-70
2021/01/15 12:53:33;;;;;;;;;14.00;14.00;;;;;;;;5061205;28;11624;-70
2021/01/15 12:56:01;;;;;;;;;18.00;15.75;;;;;;;;5055859;28;11662;-70
2021/01/15 12:58:28;;;;;;;;;23.75;17.75;;;;;;;;5051495;28;11796;-70
2021/01/15 13:00:56;;;;;;;;;11.75;10.50;;;;;;;;5058005;28;11556;-69
2021/01/15 13:03:23;;;;;;;;;13.25;11.25;;;;;;;;5061054;28;11635;-70
2021/01/15 13:05:50;;;;;;;;;13.75;11.75;;;;;;;;5054298;28;11691;-71
2021/01/15 13:08:17;;;;;;;;;16.00;13.50;;;;;;;;5057402;28;11602;-70
2021/01/15 13:10:46;;;;;;;;;22.00;20.00;;;;;;;;5056957;28;11586;-70
2021/01/15 13:13:14;;;;;;;;;20.00;15.25;;;;;;;;5063266;28;11541;-70
2021/01/15 13:15:41;;;;;;;;;14.00;12.00;;;;;;;;5058258;28;11555;-70
2021/01/15 13:18:07;;;;;;;;;10.00;7.75;;;;;;;;5061734;28;11600;-70
2021/01/15 13:20:34;;;;;;;;;19.00;16.25;;;;;;;;5067303;28;11665;-71
2021/01/15 13:23:02;;;;;;;;;22.50;19.25;;;;;;;;5065205;28;11574;-70
2021/01/15 13:25:30;;;;;;;;;23.50;23.00;;;;;;;;5066257;28;11608;-71
2021/01/15 13:27:58;;;;;;;;;34.50;24.75;;;;;;;;5066372;28;11572;-71
2021/01/15 13:30:25;;;;;;;;;29.50;28.75;;;;;;;;5061342;28;11487;-70
2021/01/15 13:32:52;;;;;;;;;29.50;27.75;;;;;;;;5060258;28;11580;-70
2021/01/15 13:35:19;;;;;;;;;19.25;16.25;;;;;;;;5045188;28;11700;-71
2021/01/15 13:37:46;;;;;;;;;29.25;24.50;;;;;;;;5072484;28;11547;-70
2021/01/15 13:40:14;;;;;;;;;20.00;18.75;;;;;;;;5051757;28;11575;-71
2021/01/15 13:42:41;;;;;;;;;17.50;15.00;;;;;;;;5059842;28;11619;-71
2021/01/15 13:45:11;;;;;;;;;18.25;16.25;;;;;;;;5065818;28;11608;-70
2021/01/15 13:47:39;;;;;;;;;22.75;21.50;;;;;;;;5064117;28;11611;-70
2021/01/15 13:50:12;;;;;;;;;20.25;18.00;;;;;;;;5065802;28;11608;-70
2021/01/15 13:52:39;;;;;;;;;24.25;21.00;;;;;;;;5062571;28;12337;-70
2021/01/15 13:55:07;;;;;;;;;21.50;18.00;;;;;;;;5073466;28;11565;-71
2021/01/15 13:57:33;;;;;;;;;16.00;14.75;;;;;;;;5040776;28;11691;-71
2021/01/15 14:00:00;;;;;;;;;19.75;15.25;;;;;;;;5068250;28;11664;-70
2021/01/15 14:02:27;;;;;;;;;10.75;10.75;;;;;;;;5059095;28;11515;-70
2021/01/15 14:04:55;;;;;;;;;16.50;15.00;;;;;;;;5064014;28;11649;-71
2021/01/15 14:07:22;;;;;;;;;17.50;15.00;;;;;;;;5065399;28;11626;-70
2021/01/15 14:09:48;;;;;;;;;17.00;10.75;;;;;;;;5080622;28;11598;-70
2021/01/15 14:12:15;;;;;;;;;16.50;15.50;;;;;;;;5057872;28;11550;-70
2021/01/15 14:14:42;;;;;;;;;11.00;11.00;;;;;;;;5059205;28;11533;-70
2021/01/15 14:17:09;;;;;;;;;11.25;11.25;;;;;;;;5057234;28;11599;-70
2021/01/15 14:19:36;;;;;;;;;17.00;15.25;;;;;;;;5057060;28;12300;-70
2021/01/15 14:22:04;;;;;;;;;10.25;10.25;;;;;;;;5061637;28;11973;-70
2021/01/15 14:24:31;;;;;;;;;21.00;21.00;;;;;;;;5065148;28;11571;-70
2021/01/15 14:26:57;;;;;;;;;18.25;18.25;;;;;;;;5060516;28;11607;-70
2021/01/15 14:29:24;;;;;;;;;21.25;21.25;;;;;;;;5064396;28;11749;-70
2021/01/15 14:31:51;;;;;;;;;17.25;14.00;;;;;;;;5058371;28;11580;-70
2021/01/15 14:34:18;;;;;;;;;20.75;20.00;;;;;;;;5066398;28;11612;-70
2021/01/15 14:36:45;;;;;;;;;18.33;15.33;;;;;;;;5058606;28;11627;-70